sensor_id;sensor_type;location;lat;lon;timestamp;pressure;altitude;pressure_sealevel;temperature;humidity
34297;BME280;20564;42.902;25.336;2023-02-28T00:00:14;97887.69;;;6.72;100.00
34297;BME280;20564;42.902;25.336;2023-02-28T00:02:43;97885.66;;;6.77;100.00
34297;BME280;20564;42.902;25.336;2023-02-28T00:05:21;97874.13;;;6.80;100.00
34297;BME280;20564;42.902;25.336;2023-02-28T00:07:51;97878.72;;;6.76;100.00
34297;BME280;20564;42.902;25.336;2023-02-28T00:10:46;97890.88;;;6.77;100.00
34297;BME280;20564;42.902;25.336;2023-02-28T00:14:01;97890.47;;;6.83;100.00
34297;BME280;20564;42.902;25.336;2023-02-28T00:16:45;97879.22;;;6.95;100.00
34297;BME280;20564;42.902;25.336;2023-02-28T00:20:10;97894.34;;;6.90;100.00
34297;BME280;20564;42.902;25.336;2023-02-28T00:26:40;97893.91;;;6.84;100.00
34297;BME280;20564;42.902;25.336;2023-02-28T00:29:17;97902.63;;;6.84;100.00
34297;BME280;20564;42.902;25.336;2023-02-28T00:31:50;97902.41;;;6.87;100.00
34297;BME280;20564;42.902;25.336;2023-02-28T00:35:15;97896.97;;;6.90;100.00
34297;BME280;20564;42.902;25.336;2023-02-28T00:38:19;97882.56;;;6.97;100.00
34297;BME280;20564;42.902;25.336;2023-02-28T00:41:24;97891.09;;;6.87;100.00
34297;BME280;20564;42.902;25.336;2023-02-28T00:44:12;97886.03;;;6.71;100.00
34297;BME280;20564;42.902;25.336;2023-02-28T00:46:58;97885.44;;;6.80;100.00
34297;BME280;20564;42.902;25.336;2023-02-28T00:49:34;97899.38;;;6.81;100.00
34297;BME280;20564;42.902;25.336;2023-02-28T00:52:15;97896.97;;;6.90;100.00
34297;BME280;20564;42.902;25.336;2023-02-28T00:55:02;97892.34;;;6.81;100.00
34297;BME280;20564;42.902;25.336;2023-02-28T00:57:29;97886.31;;;6.93;100.00
34297;BME280;20564;42.902;25.336;2023-02-28T00:59:56;97872.50;;;6.91;100.00
34297;BME280;20564;42.902;25.336;2023-02-28T01:02:32;97867.75;;;6.84;100.00
34297;BME280;20564;42.902;25.336;2023-02-28T01:06:00;97875.50;;;6.85;100.00
34297;BME280;20564;42.902;25.336;2023-02-28T01:12:17;97851.75;;;6.88;100.00
34297;BME280;20564;42.902;25.336;2023-02-28T01:17:55;97857.59;;;6.79;100.00
34297;BME280;20564;42.902;25.336;2023-02-28T01:20:45;97850.50;;;6.81;100.00
34297;BME280;20564;42.902;25.336;2023-02-28T01:30:35;97870.59;;;6.93;100.00
34297;BME280;20564;42.902;25.336;2023-02-28T01:33:41;97877.94;;;6.88;100.00
34297;BME280;20564;42.902;25.336;2023-02-28T01:37:07;97874.81;;;6.96;100.00
34297;BME280;20564;42.902;25.336;2023-02-28T01:40:32;97860.97;;;6.94;100.00
34297;BME280;20564;42.902;25.336;2023-02-28T01:43:56;97868.81;;;6.94;100.00
34297;BME280;20564;42.902;25.336;2023-02-28T01:47:17;97863.50;;;6.95;100.00
34297;BME280;20564;42.902;25.336;2023-02-28T01:53:30;97845.97;;;6.83;100.00
34297;BME280;20564;42.902;25.336;2023-02-28T01:55:59;97848.19;;;6.89;100.00
34297;BME280;20564;42.902;25.336;2023-02-28T01:58:30;97881.06;;;6.93;100.00
34297;BME280;20564;42.902;25.336;2023-02-28T02:11:48;97886.56;;;6.76;100.00
34297;BME280;20564;42.902;25.336;2023-02-28T02:17:59;97901.19;;;6.66;100.00
34297;BME280;20564;42.902;25.336;2023-02-28T02:21:18;97904.72;;;6.65;100.00
34297;BME280;20564;42.902;25.336;2023-02-28T02:24:33;97912.06;;;6.72;100.00
34297;BME280;20564;42.902;25.336;2023-02-28T02:27:20;97920.38;;;6.79;100.00
34297;BME280;20564;42.902;25.336;2023-02-28T02:33:34;97921.47;;;6.89;100.00
34297;BME280;20564;42.902;25.336;2023-02-28T02:41:08;97929.56;;;6.72;100.00
34297;BME280;20564;42.902;25.336;2023-02-28T02:43:50;97927.78;;;6.72;100.00
34297;BME280;20564;42.902;25.336;2023-02-28T02:53:58;97937.56;;;6.83;100.00
34297;BME280;20564;42.902;25.336;2023-02-28T02:56:37;97931.75;;;6.92;100.00
34297;BME280;20564;42.902;25.336;2023-02-28T02:59:24;97932.06;;;6.88;100.00
34297;BME280;20564;42.902;25.336;2023-02-28T03:02:07;97932.19;;;6.99;100.00
34297;BME280;20564;42.902;25.336;2023-02-28T03:05:17;97937.69;;;6.94;100.00
34297;BME280;20564;42.902;25.336;2023-02-28T03:07:45;97939.28;;;6.97;100.00
34297;BME280;20564;42.902;25.336;2023-02-28T03:11:00;97942.03;;;6.95;100.00
34297;BME280;20564;42.902;25.336;2023-02-28T03:13:42;97937.84;;;7.06;100.00
34297;BME280;20564;42.902;25.336;2023-02-28T03:26:49;97923.34;;;6.87;100.00
34297;BME280;20564;42.902;25.336;2023-02-28T03:29:51;97901.41;;;6.75;100.00
34297;BME280;20564;42.902;25.336;2023-02-28T03:40:49;97904.31;;;6.58;100.00
34297;BME280;20564;42.902;25.336;2023-02-28T03:43:29;97908.59;;;6.59;100.00
34297;BME280;20564;42.902;25.336;2023-02-28T03:46:01;97902.31;;;6.62;100.00
34297;BME280;20564;42.902;25.336;2023-02-28T03:52:07;97918.53;;;6.81;100.00
34297;BME280;20564;42.902;25.336;2023-02-28T03:54:42;97914.00;;;6.83;100.00
34297;BME280;20564;42.902;25.336;2023-02-28T03:57:34;97911.38;;;6.83;100.00
34297;BME280;20564;42.902;25.336;2023-02-28T04:01:28;97917.75;;;6.79;100.00
34297;BME280;20564;42.902;25.336;2023-02-28T04:04:34;97919.25;;;6.83;100.00
34297;BME280;20564;42.902;25.336;2023-02-28T04:11:22;97942.59;;;6.86;100.00
34297;BME280;20564;42.902;25.336;2023-02-28T04:18:49;97934.22;;;6.81;100.00
34297;BME280;20564;42.902;25.336;2023-02-28T04:21:19;97940.59;;;6.77;100.00
34297;BME280;20564;42.902;25.336;2023-02-28T04:23:56;97930.31;;;6.74;100.00
34297;BME280;20564;42.902;25.336;2023-02-28T04:26:57;97930.31;;;6.74;100.00
34297;BME280;20564;42.902;25.336;2023-02-28T04:30:07;97931.25;;;6.73;100.00
34297;BME280;20564;42.902;25.336;2023-02-28T04:32:39;97929.56;;;6.72;100.00
34297;BME280;20564;42.902;25.336;2023-02-28T04:35:35;97929.75;;;6.69;100.00
34297;BME280;20564;42.902;25.336;2023-02-28T04:41:51;97934.16;;;6.68;100.00
34297;BME280;20564;42.902;25.336;2023-02-28T04:44:32;97926.47;;;6.65;100.00
34297;BME280;20564;42.902;25.336;2023-02-28T04:47:03;97926.41;;;6.67;100.00
34297;BME280;20564;42.902;25.336;2023-02-28T04:49:31;97927.53;;;6.63;100.00
34297;BME280;20564;42.902;25.336;2023-02-28T04:51:59;97923.94;;;6.51;100.00
34297;BME280;20564;42.902;25.336;2023-02-28T04:54:26;97930.84;;;6.52;100.00
34297;BME280;20564;42.902;25.336;2023-02-28T04:56:53;97926.28;;;6.41;100.00
34297;BME280;20564;42.902;25.336;2023-02-28T04:59:34;97928.34;;;6.36;100.00
34297;BME280;20564;42.902;25.336;2023-02-28T05:02:28;97930.22;;;6.34;100.00
34297;BME280;20564;42.902;25.336;2023-02-28T05:08:19;97937.69;;;6.26;100.00
34297;BME280;20564;42.902;25.336;2023-02-28T05:11:24;97942.75;;;6.29;100.00
34297;BME280;20564;42.902;25.336;2023-02-28T05:14:28;97935.44;;;6.34;100.00
34297;BME280;20564;42.902;25.336;2023-02-28T05:17:08;97934.41;;;6.37;100.00
34297;BME280;20564;42.902;25.336;2023-02-28T05:20:22;97920.97;;;6.28;100.00
34297;BME280;20564;42.902;25.336;2023-02-28T05:22:55;97929.38;;;6.34;100.00
34297;BME280;20564;42.902;25.336;2023-02-28T05:25:33;97931.69;;;6.38;100.00
34297;BME280;20564;42.902;25.336;2023-02-28T05:30:52;97939.88;;;6.46;100.00
34297;BME280;20564;42.902;25.336;2023-02-28T05:33:21;97934.09;;;6.56;100.00
34297;BME280;20564;42.902;25.336;2023-02-28T05:36:16;97947.91;;;6.58;100.00
34297;BME280;20564;42.902;25.336;2023-02-28T05:39:00;97955.47;;;6.62;100.00
34297;BME280;20564;42.902;25.336;2023-02-28T05:41:39;97960.41;;;6.67;100.00
34297;BME280;20564;42.902;25.336;2023-02-28T05:47:35;97949.28;;;6.78;100.00
34297;BME280;20564;42.902;25.336;2023-02-28T05:50:03;97959.13;;;6.87;100.00
34297;BME280;20564;42.902;25.336;2023-02-28T05:52:33;97959.38;;;6.96;100.00
34297;BME280;20564;42.902;25.336;2023-02-28T05:55:25;97948.72;;;6.99;100.00
34297;BME280;20564;42.902;25.336;2023-02-28T05:58:16;97963.19;;;7.05;100.00
34297;BME280;20564;42.902;25.336;2023-02-28T06:03:54;97963.41;;;7.02;100.00
34297;BME280;20564;42.902;25.336;2023-02-28T06:06:23;97966.09;;;7.00;100.00
34297;BME280;20564;42.902;25.336;2023-02-28T06:09:00;97973.44;;;6.95;100.00
34297;BME280;20564;42.902;25.336;2023-02-28T06:11:47;97983.06;;;6.95;100.00
34297;BME280;20564;42.902;25.336;2023-02-28T06:22:24;97987.66;;;6.91;100.00
34297;BME280;20564;42.902;25.336;2023-02-28T06:25:13;97985.41;;;6.85;100.00
34297;BME280;20564;42.902;25.336;2023-02-28T06:28:25;97989.88;;;6.83;100.00
34297;BME280;20564;42.902;25.336;2023-02-28T06:34:45;97994.22;;;6.84;100.00
34297;BME280;20564;42.902;25.336;2023-02-28T06:38:01;97994.56;;;6.92;100.00
34297;BME280;20564;42.902;25.336;2023-02-28T06:40:55;97995.69;;;6.88;100.00
34297;BME280;20564;42.902;25.336;2023-02-28T06:43:28;97996.88;;;6.97;100.00
34297;BME280;20564;42.902;25.336;2023-02-28T06:46:25;97998.47;;;6.99;100.00
34297;BME280;20564;42.902;25.336;2023-02-28T06:49:19;98006.50;;;6.96;100.00
34297;BME280;20564;42.902;25.336;2023-02-28T06:52:09;98002.56;;;7.04;100.00
34297;BME280;20564;42.902;25.336;2023-02-28T06:55:37;98004.41;;;7.01;100.00
34297;BME280;20564;42.902;25.336;2023-02-28T07:02:07;97991.59;;;7.11;100.00
34297;BME280;20564;42.902;25.336;2023-02-28T07:04:36;97995.03;;;7.12;100.00
34297;BME280;20564;42.902;25.336;2023-02-28T07:07:13;97988.78;;;7.14;100.00
34297;BME280;20564;42.902;25.336;2023-02-28T07:09:42;97983.09;;;7.08;100.00
34297;BME280;20564;42.902;25.336;2023-02-28T07:12:12;97987.94;;;7.14;100.00
34297;BME280;20564;42.902;25.336;2023-02-28T07:14:45;97987.09;;;7.13;100.00
34297;BME280;20564;42.902;25.336;2023-02-28T07:17:18;97988.09;;;7.25;100.00
34297;BME280;20564;42.902;25.336;2023-02-28T07:19:45;97985.16;;;7.30;100.00
34297;BME280;20564;42.902;25.336;2023-02-28T07:22:18;97984.66;;;7.37;100.00
34297;BME280;20564;42.902;25.336;2023-02-28T07:24:48;97990.53;;;7.41;100.00
34297;BME280;20564;42.902;25.336;2023-02-28T07:27:25;97987.06;;;7.40;100.00
34297;BME280;20564;42.902;25.336;2023-02-28T07:29:54;97996.06;;;7.36;100.00
34297;BME280;20564;42.902;25.336;2023-02-28T07:32:24;97994.09;;;7.40;100.00
34297;BME280;20564;42.902;25.336;2023-02-28T07:34:51;97996.81;;;7.38;100.00
34297;BME280;20564;42.902;25.336;2023-02-28T07:37:24;97981.72;;;7.42;100.00
34297;BME280;20564;42.902;25.336;2023-02-28T07:39:51;97991.50;;;7.53;100.00
34297;BME280;20564;42.902;25.336;2023-02-28T07:42:26;97986.38;;;7.51;100.00
34297;BME280;20564;42.902;25.336;2023-02-28T07:44:57;97997.09;;;7.61;100.00
34297;BME280;20564;42.902;25.336;2023-02-28T07:47:25;98007.06;;;7.68;100.00
34297;BME280;20564;42.902;25.336;2023-02-28T07:49:56;97996.25;;;7.73;100.00
34297;BME280;20564;42.902;25.336;2023-02-28T07:52:27;97995.88;;;7.79;100.00
34297;BME280;20564;42.902;25.336;2023-02-28T07:54:54;98013.25;;;7.93;100.00
34297;BME280;20564;42.902;25.336;2023-02-28T07:57:21;98021.34;;;7.90;100.00
34297;BME280;20564;42.902;25.336;2023-02-28T07:59:50;98013.78;;;7.85;100.00
34297;BME280;20564;42.902;25.336;2023-02-28T08:02:22;98019.78;;;7.87;100.00
34297;BME280;20564;42.902;25.336;2023-02-28T08:04:49;98023.53;;;7.83;100.00
34297;BME280;20564;42.902;25.336;2023-02-28T08:07:21;98021.94;;;7.81;100.00
34297;BME280;20564;42.902;25.336;2023-02-28T08:10:04;98022.06;;;7.79;100.00
34297;BME280;20564;42.902;25.336;2023-02-28T08:13:03;98019.97;;;7.84;100.00
34297;BME280;20564;42.902;25.336;2023-02-28T08:15:30;98014.28;;;7.78;100.00
34297;BME280;20564;42.902;25.336;2023-02-28T08:17:57;98015.97;;;7.79;100.00
34297;BME280;20564;42.902;25.336;2023-02-28T08:20:27;98021.00;;;7.69;100.00
34297;BME280;20564;42.902;25.336;2023-02-28T08:22:56;98017.63;;;7.67;100.00
34297;BME280;20564;42.902;25.336;2023-02-28T08:25:32;98028.31;;;7.64;100.00
34297;BME280;20564;42.902;25.336;2023-02-28T08:28:26;98021.06;;;7.55;100.00
34297;BME280;20564;42.902;25.336;2023-02-28T08:31:57;98017.16;;;7.47;100.00
34297;BME280;20564;42.902;25.336;2023-02-28T08:34:33;98016.22;;;7.48;100.00
34297;BME280;20564;42.902;25.336;2023-02-28T08:38:20;98030.41;;;7.59;100.00
34297;BME280;20564;42.902;25.336;2023-02-28T08:41:09;98022.53;;;7.59;100.00
34297;BME280;20564;42.902;25.336;2023-02-28T08:43:54;98038.16;;;7.60;100.00
34297;BME280;20564;42.902;25.336;2023-02-28T08:59:12;98031.44;;;7.56;100.00
34297;BME280;20564;42.902;25.336;2023-02-28T09:02:25;98032.69;;;7.51;100.00
34297;BME280;20564;42.902;25.336;2023-02-28T09:05:14;98030.13;;;7.36;100.00
34297;BME280;20564;42.902;25.336;2023-02-28T09:07:41;98041.31;;;7.38;100.00
34297;BME280;20564;42.902;25.336;2023-02-28T09:10:16;98047.50;;;7.37;100.00
34297;BME280;20564;42.902;25.336;2023-02-28T09:15:37;98054.41;;;7.38;100.00
34297;BME280;20564;42.902;25.336;2023-02-28T09:18:04;98044.56;;;7.29;100.00
34297;BME280;20564;42.902;25.336;2023-02-28T09:20:32;98044.38;;;7.32;100.00
34297;BME280;20564;42.902;25.336;2023-02-28T09:23:02;98048.94;;;7.29;100.00
34297;BME280;20564;42.902;25.336;2023-02-28T09:25:29;98062.28;;;7.38;100.00
34297;BME280;20564;42.902;25.336;2023-02-28T09:27:56;98057.41;;;7.46;100.00
34297;BME280;20564;42.902;25.336;2023-02-28T09:30:23;98056.13;;;7.39;100.00
34297;BME280;20564;42.902;25.336;2023-02-28T09:32:54;98056.13;;;7.39;100.00
34297;BME280;20564;42.902;25.336;2023-02-28T09:35:37;98063.88;;;7.41;100.00
34297;BME280;20564;42.902;25.336;2023-02-28T09:38:28;98057.41;;;7.46;100.00
34297;BME280;20564;42.902;25.336;2023-02-28T09:42:25;98059.59;;;7.53;100.00
34297;BME280;20564;42.902;25.336;2023-02-28T09:49:06;98062.38;;;7.64;100.00
34297;BME280;20564;42.902;25.336;2023-02-28T09:54:22;98043.63;;;7.70;100.00
34297;BME280;20564;42.902;25.336;2023-02-28T10:05:27;98033.81;;;7.99;100.00
34297;BME280;20564;42.902;25.336;2023-02-28T10:08:40;98043.16;;;8.03;100.00
34297;BME280;20564;42.902;25.336;2023-02-28T10:11:12;98028.78;;;7.83;100.00
34297;BME280;20564;42.902;25.336;2023-02-28T10:14:04;98037.47;;;7.84;100.00
34297;BME280;20564;42.902;25.336;2023-02-28T10:16:38;98015.56;;;7.72;100.00
34297;BME280;20564;42.902;25.336;2023-02-28T10:19:15;98037.38;;;7.85;100.00
34297;BME280;20564;42.902;25.336;2023-02-28T10:24:39;98035.56;;;7.73;100.00
34297;BME280;20564;42.902;25.336;2023-02-28T10:29:47;98035.06;;;7.68;100.00
34297;BME280;20564;42.902;25.336;2023-02-28T10:32:18;98036.72;;;7.69;100.00
34297;BME280;20564;42.902;25.336;2023-02-28T10:35:41;98039.13;;;7.72;100.00
34297;BME280;20564;42.902;25.336;2023-02-28T10:37:46;98034.63;;;7.74;100.00
34297;BME280;20564;42.902;25.336;2023-02-28T10:43:03;98033.53;;;7.64;100.00
34297;BME280;20564;42.902;25.336;2023-02-28T10:45:32;98035.84;;;7.56;100.00
34297;BME280;20564;42.902;25.336;2023-02-28T10:50:54;98031.50;;;7.42;100.00
34297;BME280;20564;42.902;25.336;2023-02-28T10:53:28;98035.25;;;7.38;100.00
34297;BME280;20564;42.902;25.336;2023-02-28T10:56:14;98028.97;;;7.40;100.00
34297;BME280;20564;42.902;25.336;2023-02-28T10:58:56;98029.94;;;7.39;100.00
34297;BME280;20564;42.902;25.336;2023-02-28T11:01:45;98015.00;;;7.27;100.00
34297;BME280;20564;42.902;25.336;2023-02-28T11:04:37;98008.09;;;7.26;100.00
34297;BME280;20564;42.902;25.336;2023-02-28T11:07:20;98006.88;;;7.32;100.00
34297;BME280;20564;42.902;25.336;2023-02-28T11:09:57;97999.69;;;7.21;100.00
34297;BME280;20564;42.902;25.336;2023-02-28T11:12:37;98005.28;;;7.29;100.00
34297;BME280;20564;42.902;25.336;2023-02-28T11:15:33;98000.75;;;7.31;100.00
34297;BME280;20564;42.902;25.336;2023-02-28T11:18:24;97997.22;;;7.32;100.00
34297;BME280;20564;42.902;25.336;2023-02-28T11:20:54;98002.53;;;7.31;100.00
34297;BME280;20564;42.902;25.336;2023-02-28T11:23:27;97994.69;;;7.31;100.00
34297;BME280;20564;42.902;25.336;2023-02-28T11:26:06;98010.72;;;7.26;100.00
34297;BME280;20564;42.902;25.336;2023-02-28T11:28:40;98008.38;;;7.21;100.00
34297;BME280;20564;42.902;25.336;2023-02-28T11:33:46;98001.94;;;7.13;100.00
34297;BME280;20564;42.902;25.336;2023-02-28T11:36:23;97996.31;;;7.19;100.00
34297;BME280;20564;42.902;25.336;2023-02-28T11:39:17;97992.22;;;7.15;100.00
34297;BME280;20564;42.902;25.336;2023-02-28T11:50:20;97981.88;;;7.13;100.00
34297;BME280;20564;42.902;25.336;2023-02-28T11:53:17;97976.00;;;7.10;100.00
34297;BME280;20564;42.902;25.336;2023-02-28T11:56:34;97980.47;;;7.08;100.00
34297;BME280;20564;42.902;25.336;2023-02-28T12:06:25;97966.75;;;7.04;100.00
34297;BME280;20564;42.902;25.336;2023-02-28T12:15:23;97983.56;;;7.27;100.00
34297;BME280;20564;42.902;25.336;2023-02-28T12:21:11;97984.66;;;7.37;100.00
34297;BME280;20564;42.902;25.336;2023-02-28T12:35:17;97982.09;;;7.23;100.00
34297;BME280;20564;42.902;25.336;2023-02-28T12:38:22;97967.19;;;7.11;100.00
34297;BME280;20564;42.902;25.336;2023-02-28T12:45:12;97976.00;;;7.10;100.00
34297;BME280;20564;42.902;25.336;2023-02-28T12:48:13;97981.44;;;7.07;100.00
34297;BME280;20564;42.902;25.336;2023-02-28T13:09:20;98002.22;;;6.95;100.00
34297;BME280;20564;42.902;25.336;2023-02-28T13:12:12;97992.44;;;6.85;100.00
34297;BME280;20564;42.902;25.336;2023-02-28T13:18:46;97984.66;;;6.83;100.00
34297;BME280;20564;42.902;25.336;2023-02-28T13:28:58;97982.97;;;6.82;100.00
34297;BME280;20564;42.902;25.336;2023-02-28T13:32:41;97990.28;;;6.77;100.00
34297;BME280;20564;42.902;25.336;2023-02-28T13:54:13;97985.44;;;6.71;100.00
34297;BME280;20564;42.902;25.336;2023-02-28T13:57:53;97993.28;;;6.71;100.00
34297;BME280;20564;42.902;25.336;2023-02-28T14:04:46;97977.94;;;6.79;100.00
34297;BME280;20564;42.902;25.336;2023-02-28T14:07:48;97976.28;;;6.78;100.00
34297;BME280;20564;42.902;25.336;2023-02-28T14:10:32;97980.25;;;6.84;100.00
34297;BME280;20564;42.902;25.336;2023-02-28T14:13:03;97982.97;;;6.82;100.00
34297;BME280;20564;42.902;25.336;2023-02-28T14:15:51;97983.19;;;6.79;100.00
34297;BME280;20564;42.902;25.336;2023-02-28T14:18:36;97983.75;;;6.84;100.00
34297;BME280;20564;42.902;25.336;2023-02-28T14:30:57;97985.97;;;6.76;100.00
34297;BME280;20564;42.902;25.336;2023-02-28T14:33:38;97976.19;;;6.65;100.00
34297;BME280;20564;42.902;25.336;2023-02-28T14:36:22;98000.19;;;6.72;100.00
34297;BME280;20564;42.902;25.336;2023-02-28T14:39:21;98008.03;;;6.72;100.00
34297;BME280;20564;42.902;25.336;2023-02-28T14:45:02;98008.31;;;6.82;100.00
34297;BME280;20564;42.902;25.336;2023-02-28T14:47:49;98009.59;;;6.89;100.00
34297;BME280;20564;42.902;25.336;2023-02-28T14:51:19;98011.41;;;6.74;100.00
34297;BME280;20564;42.902;25.336;2023-02-28T14:54:20;98018.31;;;6.75;100.00
34297;BME280;20564;42.902;25.336;2023-02-28T14:56:53;98014.56;;;6.79;100.00
34297;BME280;20564;42.902;25.336;2023-02-28T14:59:32;98021.41;;;6.82;100.00
34297;BME280;20564;42.902;25.336;2023-02-28T15:02:48;98018.13;;;6.78;100.00
34297;BME280;20564;42.902;25.336;2023-02-28T15:12:23;98025.59;;;6.84;100.00
34297;BME280;20564;42.902;25.336;2023-02-28T15:15:17;98018.31;;;6.75;100.00
34297;BME280;20564;42.902;25.336;2023-02-28T15:18:21;98016.53;;;6.75;100.00
34297;BME280;20564;42.902;25.336;2023-02-28T15:21:08;98016.06;;;6.69;100.00
34297;BME280;20564;42.902;25.336;2023-02-28T15:24:51;98019.09;;;6.63;100.00
34297;BME280;20564;42.902;25.336;2023-02-28T15:27:53;98020.03;;;6.47;100.00
34297;BME280;20564;42.902;25.336;2023-02-28T15:30:30;98016.97;;;6.55;100.00
34297;BME280;20564;42.902;25.336;2023-02-28T15:53:35;98028.06;;;6.59;100.00
34297;BME280;20564;42.902;25.336;2023-02-28T15:56:55;98024.16;;;6.51;100.00
34297;BME280;20564;42.902;25.336;2023-02-28T16:00:12;98026.00;;;6.49;100.00
34297;BME280;20564;42.902;25.336;2023-02-28T16:03:22;98027.97;;;6.46;100.00
34297;BME280;20564;42.902;25.336;2023-02-28T16:06:12;98041.34;;;6.56;100.00
34297;BME280;20564;42.902;25.336;2023-02-28T16:09:13;98036.66;;;6.61;100.00
34297;BME280;20564;42.902;25.336;2023-02-28T16:12:34;98047.28;;;6.58;100.00
34297;BME280;20564;42.902;25.336;2023-02-28T16:29:38;98037.41;;;6.48;100.00
34297;BME280;20564;42.902;25.336;2023-02-28T16:33:26;98050.78;;;6.58;100.00
34297;BME280;20564;42.902;25.336;2023-02-28T16:39:45;98058.16;;;6.51;100.00
34297;BME280;20564;42.902;25.336;2023-02-28T16:46:01;98065.88;;;6.53;100.00
34297;BME280;20564;42.902;25.336;2023-02-28T16:48:47;98057.84;;;6.56;100.00
34297;BME280;20564;42.902;25.336;2023-02-28T16:52:26;98055.06;;;6.59;100.00
34297;BME280;20564;42.902;25.336;2023-02-28T16:55:36;98049.00;;;6.59;100.00
34297;BME280;20564;42.902;25.336;2023-02-28T16:59:30;98055.91;;;6.60;100.00
34297;BME280;20564;42.902;25.336;2023-02-28T17:01:57;98045.44;;;6.60;100.00
34297;BME280;20564;42.902;25.336;2023-02-28T17:07:36;98043.75;;;6.59;100.00
34297;BME280;20564;42.902;25.336;2023-02-28T17:21:22;98054.41;;;6.56;100.00
34297;BME280;20564;42.902;25.336;2023-02-28T17:23:51;98052.53;;;6.58;100.00
34297;BME280;20564;42.902;25.336;2023-02-28T17:26:31;98053.09;;;6.48;100.00
34297;BME280;20564;42.902;25.336;2023-02-28T17:32:53;98057.69;;;6.45;100.00
34297;BME280;20564;42.902;25.336;2023-02-28T17:39:25;98061.41;;;6.41;100.00
34297;BME280;20564;42.902;25.336;2023-02-28T17:42:05;98056.19;;;6.41;100.00
34297;BME280;20564;42.902;25.336;2023-02-28T17:45:01;98055.13;;;6.43;100.00
34297;BME280;20564;42.902;25.336;2023-02-28T17:47:48;98063.94;;;6.42;100.00
34297;BME280;20564;42.902;25.336;2023-02-28T17:53:31;98056.25;;;6.39;100.00
34297;BME280;20564;42.902;25.336;2023-02-28T17:59:53;98063.38;;;6.37;100.00
34297;BME280;20564;42.902;25.336;2023-02-28T18:03:00;98067.56;;;6.25;100.00
34297;BME280;20564;42.902;25.336;2023-02-28T18:05:28;98068.59;;;6.23;100.00
34297;BME280;20564;42.902;25.336;2023-02-28T18:07:59;98065.78;;;6.26;100.00
34297;BME280;20564;42.902;25.336;2023-02-28T18:10:27;98065.22;;;6.21;100.00
34297;BME280;20564;42.902;25.336;2023-02-28T18:13:09;98068.88;;;6.18;100.00
34297;BME280;20564;42.902;25.336;2023-02-28T18:19:06;98058.84;;;6.25;100.00
34297;BME280;20564;42.902;25.336;2023-02-28T18:21:46;98060.38;;;6.29;100.00
34297;BME280;20564;42.902;25.336;2023-02-28T18:25:09;98057.56;;;6.32;100.00
34297;BME280;20564;42.902;25.336;2023-02-28T18:27:35;98050.47;;;6.34;100.00
34297;BME280;20564;42.902;25.336;2023-02-28T18:33:34;98045.25;;;6.34;100.00
34297;BME280;20564;42.902;25.336;2023-02-28T18:39:31;98051.13;;;6.38;100.00
34297;BME280;20564;42.902;25.336;2023-02-28T18:42:08;98044.13;;;6.38;100.00
34297;BME280;20564;42.902;25.336;2023-02-28T18:44:39;98039.00;;;6.37;100.00
34297;BME280;20564;42.902;25.336;2023-02-28T18:47:07;98045.25;;;6.34;100.00
34297;BME280;20564;42.902;25.336;2023-02-28T18:49:35;98048.69;;;6.35;100.00
34297;BME280;20564;42.902;25.336;2023-02-28T18:52:03;98041.69;;;6.35;100.00
34297;BME280;20564;42.902;25.336;2023-02-28T18:54:43;98043.00;;;6.42;100.00
34297;BME280;20564;42.902;25.336;2023-02-28T18:57:35;98043.19;;;6.39;100.00
34297;BME280;20564;42.902;25.336;2023-02-28T19:00:15;98041.50;;;6.38;100.00
34297;BME280;20564;42.902;25.336;2023-02-28T19:02:49;98038.16;;;6.36;100.00
34297;BME280;20564;42.902;25.336;2023-02-28T19:05:22;98031.16;;;6.37;100.00
34297;BME280;20564;42.902;25.336;2023-02-28T19:08:40;98029.19;;;6.40;100.00
34297;BME280;20564;42.902;25.336;2023-02-28T19:11:21;98026.84;;;6.36;100.00
34297;BME280;20564;42.902;25.336;2023-02-28T19:14:44;98028.72;;;6.34;100.00
34297;BME280;20564;42.902;25.336;2023-02-28T19:17:37;98029.75;;;6.31;100.00
34297;BME280;20564;42.902;25.336;2023-02-28T19:20:19;98018.16;;;6.35;100.00
34297;BME280;20564;42.902;25.336;2023-02-28T19:23:02;98029.66;;;6.33;100.00
34297;BME280;20564;42.902;25.336;2023-02-28T19:26:22;98031.22;;;6.35;100.00
34297;BME280;20564;42.902;25.336;2023-02-28T19:29:10;98019.09;;;6.34;100.00
34297;BME280;20564;42.902;25.336;2023-02-28T19:32:11;98026.19;;;6.32;100.00
34297;BME280;20564;42.902;25.336;2023-02-28T19:35:16;98029.56;;;6.34;100.00
34297;BME280;20564;42.902;25.336;2023-02-28T19:40:45;98029.66;;;6.33;100.00
34297;BME280;20564;42.902;25.336;2023-02-28T19:43:13;98033.13;;;6.33;100.00
34297;BME280;20564;42.902;25.336;2023-02-28T19:49:07;98036.47;;;6.35;100.00
34297;BME280;20564;42.902;25.336;2023-02-28T19:51:35;98031.16;;;6.37;100.00
34297;BME280;20564;42.902;25.336;2023-02-28T19:54:04;98031.06;;;6.38;100.00
34297;BME280;20564;42.902;25.336;2023-02-28T19:56:50;98034.59;;;6.37;100.00
34297;BME280;20564;42.902;25.336;2023-02-28T19:59:38;98037.50;;;6.33;100.00
34297;BME280;20564;42.902;25.336;2023-02-28T20:02:30;98037.75;;;6.28;100.00
34297;BME280;20564;42.902;25.336;2023-02-28T20:11:38;98035.13;;;6.14;100.00
34297;BME280;20564;42.902;25.336;2023-02-28T20:14:20;98031.88;;;6.10;100.00
34297;BME280;20564;42.902;25.336;2023-02-28T20:17:25;98038.50;;;6.01;100.00
34297;BME280;20564;42.902;25.336;2023-02-28T20:20:14;98041.38;;;5.97;100.00
34297;BME280;20564;42.902;25.336;2023-02-28T20:23:12;98035.31;;;5.96;100.00
34297;BME280;20564;42.902;25.336;2023-02-28T20:33:29;98031.78;;;5.97;100.00
34297;BME280;20564;42.902;25.336;2023-02-28T20:36:01;98035.03;;;6.01;100.00
34297;BME280;20564;42.902;25.336;2023-02-28T20:38:45;98044.22;;;6.08;100.00